sensor_id;sensor_type;location;lat;lon;timestamp;temperature;humidity
2543;DHT22;1116;51.502;7.414;2023-03-12T00:01:44;2.30;22.50
2543;DHT22;1116;51.502;7.414;2023-03-12T00:04:15;2.40;22.60
2543;DHT22;1116;51.502;7.414;2023-03-12T00:06:46;2.40;20.00
2543;DHT22;1116;51.502;7.414;2023-03-12T00:09:16;2.30;19.80
2543;DHT22;1116;51.502;7.414;2023-03-12T00:11:50;2.40;20.10
2543;DHT22;1116;51.502;7.414;2023-03-12T00:14:21;2.40;19.00
2543;DHT22;1116;51.502;7.414;2023-03-12T00:16:54;2.40;19.00
2543;DHT22;1116;51.502;7.414;2023-03-12T00:19:25;2.80;19.40
2543;DHT22;1116;51.502;7.414;2023-03-12T00:21:56;2.40;19.90
2543;DHT22;1116;51.502;7.414;2023-03-12T00:24:27;2.00;18.50
2543;DHT22;1116;51.502;7.414;2023-03-12T00:27:00;2.30;19.50
2543;DHT22;1116;51.502;7.414;2023-03-12T00:29:31;2.30;18.10
2543;DHT22;1116;51.502;7.414;2023-03-12T00:32:02;2.50;17.90
2543;DHT22;1116;51.502;7.414;2023-03-12T00:34:32;2.40;18.10
2543;DHT22;1116;51.502;7.414;2023-03-12T00:37:03;2.40;17.10
2543;DHT22;1116;51.502;7.414;2023-03-12T00:39:35;2.40;18.10
2543;DHT22;1116;51.502;7.414;2023-03-12T00:42:08;2.30;17.40
2543;DHT22;1116;51.502;7.414;2023-03-12T00:44:39;2.30;17.50
2543;DHT22;1116;51.502;7.414;2023-03-12T00:47:11;2.30;18.90
2543;DHT22;1116;51.502;7.414;2023-03-12T00:49:42;2.30;16.90
2543;DHT22;1116;51.502;7.414;2023-03-12T00:52:13;2.30;18.20
2543;DHT22;1116;51.502;7.414;2023-03-12T00:54:44;2.30;17.20
2543;DHT22;1116;51.502;7.414;2023-03-12T00:57:18;2.40;15.60
2543;DHT22;1116;51.502;7.414;2023-03-12T00:59:48;2.50;16.00
2543;DHT22;1116;51.502;7.414;2023-03-12T01:02:19;2.50;15.50
2543;DHT22;1116;51.502;7.414;2023-03-12T01:04:50;2.50;15.30
2543;DHT22;1116;51.502;7.414;2023-03-12T01:07:21;2.50;15.00
2543;DHT22;1116;51.502;7.414;2023-03-12T01:09:55;2.50;14.60
2543;DHT22;1116;51.502;7.414;2023-03-12T01:12:29;2.60;14.80
2543;DHT22;1116;51.502;7.414;2023-03-12T01:15:00;2.60;13.60
2543;DHT22;1116;51.502;7.414;2023-03-12T01:17:31;2.70;13.50
2543;DHT22;1116;51.502;7.414;2023-03-12T01:20:01;2.60;14.50
2543;DHT22;1116;51.502;7.414;2023-03-12T01:22:33;2.70;13.50
2543;DHT22;1116;51.502;7.414;2023-03-12T01:25:05;2.70;13.10
2543;DHT22;1116;51.502;7.414;2023-03-12T01:27:38;2.70;12.00
2543;DHT22;1116;51.502;7.414;2023-03-12T01:30:10;2.70;12.50
2543;DHT22;1116;51.502;7.414;2023-03-12T01:32:42;2.70;13.60
2543;DHT22;1116;51.502;7.414;2023-03-12T01:35:13;2.70;12.50
2543;DHT22;1116;51.502;7.414;2023-03-12T01:37:43;2.70;11.70
2543;DHT22;1116;51.502;7.414;2023-03-12T01:40:15;2.70;12.60
2543;DHT22;1116;51.502;7.414;2023-03-12T01:42:55;2.70;10.80
2543;DHT22;1116;51.502;7.414;2023-03-12T01:48:31;2.80;12.10
2543;DHT22;1116;51.502;7.414;2023-03-12T01:51:04;2.80;10.70
2543;DHT22;1116;51.502;7.414;2023-03-12T01:53:36;2.80;11.10
2543;DHT22;1116;51.502;7.414;2023-03-12T01:56:08;2.80;10.60
2543;DHT22;1116;51.502;7.414;2023-03-12T01:58:46;2.90;10.70
2543;DHT22;1116;51.502;7.414;2023-03-12T02:01:18;2.90;11.00
2543;DHT22;1116;51.502;7.414;2023-03-12T02:03:51;3.00;10.70
2543;DHT22;1116;51.502;7.414;2023-03-12T02:06:28;3.00;10.50
2543;DHT22;1116;51.502;7.414;2023-03-12T02:09:01;3.00;9.50
2543;DHT22;1116;51.502;7.414;2023-03-12T02:11:32;2.90;9.70
2543;DHT22;1116;51.502;7.414;2023-03-12T02:14:06;3.00;10.30
2543;DHT22;1116;51.502;7.414;2023-03-12T02:16:37;3.00;9.60
2543;DHT22;1116;51.502;7.414;2023-03-12T02:19:12;3.10;10.80
2543;DHT22;1116;51.502;7.414;2023-03-12T02:21:49;3.00;8.70
2543;DHT22;1116;51.502;7.414;2023-03-12T02:24:25;3.10;10.70
2543;DHT22;1116;51.502;7.414;2023-03-12T02:27:00;3.10;8.90
2543;DHT22;1116;51.502;7.414;2023-03-12T02:29:33;3.10;8.30
2543;DHT22;1116;51.502;7.414;2023-03-12T02:32:07;3.10;8.20
2543;DHT22;1116;51.502;7.414;2023-03-12T02:34:39;3.10;9.20
2543;DHT22;1116;51.502;7.414;2023-03-12T02:37:10;3.10;9.20
2543;DHT22;1116;51.502;7.414;2023-03-12T02:39:41;3.20;8.80
2543;DHT22;1116;51.502;7.414;2023-03-12T02:42:16;3.60;8.20
2543;DHT22;1116;51.502;7.414;2023-03-12T02:44:47;3.20;8.10
2543;DHT22;1116;51.502;7.414;2023-03-12T02:47:54;3.20;8.50
2543;DHT22;1116;51.502;7.414;2023-03-12T02:54:55;3.30;8.60
2543;DHT22;1116;51.502;7.414;2023-03-12T02:57:28;3.70;8.70
2543;DHT22;1116;51.502;7.414;2023-03-12T02:59:59;3.30;8.40
2543;DHT22;1116;51.502;7.414;2023-03-12T03:05:02;3.30;7.90
2543;DHT22;1116;51.502;7.414;2023-03-12T03:07:33;3.30;9.00
2543;DHT22;1116;51.502;7.414;2023-03-12T03:10:09;3.70;6.90
2543;DHT22;1116;51.502;7.414;2023-03-12T03:12:44;3.40;8.10
2543;DHT22;1116;51.502;7.414;2023-03-12T03:15:16;3.40;7.80
2543;DHT22;1116;51.502;7.414;2023-03-12T03:17:47;3.50;8.20
2543;DHT22;1116;51.502;7.414;2023-03-12T03:20:22;3.40;9.20
2543;DHT22;1116;51.502;7.414;2023-03-12T03:22:53;3.30;9.20
2543;DHT22;1116;51.502;7.414;2023-03-12T03:25:24;3.40;8.20
2543;DHT22;1116;51.502;7.414;2023-03-12T03:27:58;3.30;10.00
2543;DHT22;1116;51.502;7.414;2023-03-12T03:30:29;3.30;9.40
2543;DHT22;1116;51.502;7.414;2023-03-12T03:33:00;3.20;10.00
2543;DHT22;1116;51.502;7.414;2023-03-12T03:35:33;3.10;10.80
2543;DHT22;1116;51.502;7.414;2023-03-12T03:38:03;3.10;9.70
2543;DHT22;1116;51.502;7.414;2023-03-12T03:40:34;3.10;9.40
2543;DHT22;1116;51.502;7.414;2023-03-12T03:43:08;3.10;9.30
2543;DHT22;1116;51.502;7.414;2023-03-12T03:45:39;3.10;10.60
2543;DHT22;1116;51.502;7.414;2023-03-12T03:48:11;3.20;9.10
2543;DHT22;1116;51.502;7.414;2023-03-12T03:50:42;3.20;8.30
2543;DHT22;1116;51.502;7.414;2023-03-12T03:53:13;3.20;8.70
2543;DHT22;1116;51.502;7.414;2023-03-12T03:55:46;3.10;8.10
2543;DHT22;1116;51.502;7.414;2023-03-12T03:58:22;3.30;8.30
2543;DHT22;1116;51.502;7.414;2023-03-12T04:00:53;3.20;8.20
2543;DHT22;1116;51.502;7.414;2023-03-12T04:03:27;2.80;8.00
2543;DHT22;1116;51.502;7.414;2023-03-12T04:06:01;3.20;8.90
2543;DHT22;1116;51.502;7.414;2023-03-12T04:08:34;3.20;8.20
2543;DHT22;1116;51.502;7.414;2023-03-12T04:11:07;3.20;9.00
2543;DHT22;1116;51.502;7.414;2023-03-12T04:13:41;3.30;8.20
2543;DHT22;1116;51.502;7.414;2023-03-12T04:16:13;3.40;8.00
2543;DHT22;1116;51.502;7.414;2023-03-12T04:18:51;3.40;7.50
2543;DHT22;1116;51.502;7.414;2023-03-12T04:21:23;3.00;7.60
2543;DHT22;1116;51.502;7.414;2023-03-12T04:23:56;3.40;7.10
2543;DHT22;1116;51.502;7.414;2023-03-12T04:26:27;3.40;11.20
2543;DHT22;1116;51.502;7.414;2023-03-12T04:29:01;3.40;8.20
2543;DHT22;1116;51.502;7.414;2023-03-12T04:31:34;3.40;8.20
2543;DHT22;1116;51.502;7.414;2023-03-12T04:34:05;3.50;7.70
2543;DHT22;1116;51.502;7.414;2023-03-12T04:36:40;3.40;7.90
2543;DHT22;1116;51.502;7.414;2023-03-12T04:39:12;3.40;7.10
2543;DHT22;1116;51.502;7.414;2023-03-12T04:41:43;3.40;8.30
2543;DHT22;1116;51.502;7.414;2023-03-12T04:44:16;3.50;7.10
2543;DHT22;1116;51.502;7.414;2023-03-12T04:46:47;3.50;10.50
2543;DHT22;1116;51.502;7.414;2023-03-12T04:49:18;3.50;7.90
2543;DHT22;1116;51.502;7.414;2023-03-12T04:51:49;3.50;7.50
2543;DHT22;1116;51.502;7.414;2023-03-12T04:54:19;3.50;8.20
2543;DHT22;1116;51.502;7.414;2023-03-12T04:56:50;3.50;7.60
2543;DHT22;1116;51.502;7.414;2023-03-12T04:59:24;3.50;8.90
2543;DHT22;1116;51.502;7.414;2023-03-12T05:01:56;3.60;8.00
2543;DHT22;1116;51.502;7.414;2023-03-12T05:04:27;3.60;8.80
2543;DHT22;1116;51.502;7.414;2023-03-12T05:07:00;3.60;8.00
2543;DHT22;1116;51.502;7.414;2023-03-12T05:09:31;3.60;6.90
2543;DHT22;1116;51.502;7.414;2023-03-12T05:12:02;3.60;9.10
2543;DHT22;1116;51.502;7.414;2023-03-12T05:14:39;3.60;8.10
2543;DHT22;1116;51.502;7.414;2023-03-12T05:17:12;3.60;7.80
2543;DHT22;1116;51.502;7.414;2023-03-12T05:19:44;3.60;6.70
2543;DHT22;1116;51.502;7.414;2023-03-12T05:22:16;3.70;7.80
2543;DHT22;1116;51.502;7.414;2023-03-12T05:24:47;3.70;7.60
2543;DHT22;1116;51.502;7.414;2023-03-12T05:27:17;3.70;8.00
2543;DHT22;1116;51.502;7.414;2023-03-12T05:29:51;3.80;7.00
2543;DHT22;1116;51.502;7.414;2023-03-12T05:32:22;3.80;8.60
2543;DHT22;1116;51.502;7.414;2023-03-12T05:34:53;3.70;6.90
2543;DHT22;1116;51.502;7.414;2023-03-12T05:37:24;3.70;7.80
2543;DHT22;1116;51.502;7.414;2023-03-12T05:39:57;3.80;6.40
2543;DHT22;1116;51.502;7.414;2023-03-12T05:42:27;3.80;6.70
2543;DHT22;1116;51.502;7.414;2023-03-12T05:45:01;3.80;8.90
2543;DHT22;1116;51.502;7.414;2023-03-12T05:47:32;3.80;7.80
2543;DHT22;1116;51.502;7.414;2023-03-12T05:50:05;3.80;7.40
2543;DHT22;1116;51.502;7.414;2023-03-12T05:52:37;3.80;7.90
2543;DHT22;1116;51.502;7.414;2023-03-12T05:55:09;3.80;6.70
2543;DHT22;1116;51.502;7.414;2023-03-12T05:58:14;3.90;7.70
2543;DHT22;1116;51.502;7.414;2023-03-12T06:01:39;3.90;7.10
2543;DHT22;1116;51.502;7.414;2023-03-12T06:04:10;3.90;7.90
2543;DHT22;1116;51.502;7.414;2023-03-12T06:06:41;4.00;7.00
2543;DHT22;1116;51.502;7.414;2023-03-12T06:09:12;3.90;7.10
2543;DHT22;1116;51.502;7.414;2023-03-12T06:11:43;3.90;7.80
2543;DHT22;1116;51.502;7.414;2023-03-12T06:14:14;4.00;7.30
2543;DHT22;1116;51.502;7.414;2023-03-12T06:16:47;4.00;6.70
2543;DHT22;1116;51.502;7.414;2023-03-12T06:19:18;4.00;6.70
2543;DHT22;1116;51.502;7.414;2023-03-12T06:21:49;4.00;6.80
2543;DHT22;1116;51.502;7.414;2023-03-12T06:24:20;4.00;7.10
2543;DHT22;1116;51.502;7.414;2023-03-12T06:26:50;4.00;8.00
2543;DHT22;1116;51.502;7.414;2023-03-12T06:29:21;4.00;8.20
2543;DHT22;1116;51.502;7.414;2023-03-12T06:31:56;4.00;9.80
2543;DHT22;1116;51.502;7.414;2023-03-12T06:34:27;4.00;8.80
2543;DHT22;1116;51.502;7.414;2023-03-12T06:36:58;4.00;10.10
2543;DHT22;1116;51.502;7.414;2023-03-12T06:39:29;4.00;9.60
2543;DHT22;1116;51.502;7.414;2023-03-12T06:41:59;4.00;8.90
2543;DHT22;1116;51.502;7.414;2023-03-12T06:44:30;4.00;9.90
2543;DHT22;1116;51.502;7.414;2023-03-12T06:47:04;4.10;11.10
2543;DHT22;1116;51.502;7.414;2023-03-12T06:49:35;4.00;11.20
2543;DHT22;1116;51.502;7.414;2023-03-12T06:52:06;4.10;11.50
2543;DHT22;1116;51.502;7.414;2023-03-12T06:54:37;4.10;11.40
2543;DHT22;1116;51.502;7.414;2023-03-12T06:57:08;4.10;12.50
2543;DHT22;1116;51.502;7.414;2023-03-12T06:59:39;4.20;13.70
2543;DHT22;1116;51.502;7.414;2023-03-12T07:02:12;4.20;12.10
2543;DHT22;1116;51.502;7.414;2023-03-12T07:04:43;4.20;11.50
2543;DHT22;1116;51.502;7.414;2023-03-12T07:07:13;4.20;12.40
2543;DHT22;1116;51.502;7.414;2023-03-12T07:09:45;4.30;12.90
2543;DHT22;1116;51.502;7.414;2023-03-12T07:12:15;4.30;13.20
2543;DHT22;1116;51.502;7.414;2023-03-12T07:14:46;4.20;13.10
2543;DHT22;1116;51.502;7.414;2023-03-12T07:17:22;4.20;14.70
2543;DHT22;1116;51.502;7.414;2023-03-12T07:19:54;4.20;16.10
2543;DHT22;1116;51.502;7.414;2023-03-12T07:22:25;4.20;16.40
2543;DHT22;1116;51.502;7.414;2023-03-12T07:24:56;4.30;16.50
2543;DHT22;1116;51.502;7.414;2023-03-12T07:27:27;4.30;16.90
2543;DHT22;1116;51.502;7.414;2023-03-12T07:29:57;4.40;17.40
2543;DHT22;1116;51.502;7.414;2023-03-12T07:32:31;4.40;17.60
2543;DHT22;1116;51.502;7.414;2023-03-12T07:35:04;4.50;18.90
2543;DHT22;1116;51.502;7.414;2023-03-12T07:37:35;4.50;18.50
2543;DHT22;1116;51.502;7.414;2023-03-12T07:40:08;4.50;20.30
2543;DHT22;1116;51.502;7.414;2023-03-12T07:42:39;4.50;20.30
2543;DHT22;1116;51.502;7.414;2023-03-12T07:45:12;4.50;20.40
2543;DHT22;1116;51.502;7.414;2023-03-12T07:47:46;4.50;21.50
2543;DHT22;1116;51.502;7.414;2023-03-12T07:50:17;4.60;22.10
2543;DHT22;1116;51.502;7.414;2023-03-12T07:52:49;4.60;22.60
2543;DHT22;1116;51.502;7.414;2023-03-12T07:55:19;4.60;24.60
2543;DHT22;1116;51.502;7.414;2023-03-12T07:57:51;4.60;26.00
2543;DHT22;1116;51.502;7.414;2023-03-12T08:00:26;4.50;27.60
2543;DHT22;1116;51.502;7.414;2023-03-12T08:03:05;4.60;28.80
2543;DHT22;1116;51.502;7.414;2023-03-12T08:05:36;4.60;30.20
2543;DHT22;1116;51.502;7.414;2023-03-12T08:08:07;4.60;32.60
2543;DHT22;1116;51.502;7.414;2023-03-12T08:10:38;4.70;34.20
2543;DHT22;1116;51.502;7.414;2023-03-12T08:13:11;4.70;35.80
2543;DHT22;1116;51.502;7.414;2023-03-12T08:15:42;4.70;36.90
2543;DHT22;1116;51.502;7.414;2023-03-12T08:18:16;4.70;37.70
2543;DHT22;1116;51.502;7.414;2023-03-12T08:20:52;4.70;38.90
2543;DHT22;1116;51.502;7.414;2023-03-12T08:23:23;4.70;42.00
2543;DHT22;1116;51.502;7.414;2023-03-12T08:26:02;4.70;43.90
2543;DHT22;1116;51.502;7.414;2023-03-12T08:28:39;5.10;47.40
2543;DHT22;1116;51.502;7.414;2023-03-12T08:31:13;4.80;48.90
2543;DHT22;1116;51.502;7.414;2023-03-12T08:33:49;4.80;50.30
2543;DHT22;1116;51.502;7.414;2023-03-12T08:36:21;4.80;50.20
2543;DHT22;1116;51.502;7.414;2023-03-12T08:38:52;4.90;52.40
2543;DHT22;1116;51.502;7.414;2023-03-12T08:41:22;4.90;53.10
2543;DHT22;1116;51.502;7.414;2023-03-12T08:43:53;4.90;53.50
2543;DHT22;1116;51.502;7.414;2023-03-12T08:46:24;5.00;56.40
2543;DHT22;1116;51.502;7.414;2023-03-12T08:48:58;5.00;54.60
2543;DHT22;1116;51.502;7.414;2023-03-12T08:51:29;5.00;55.00
2543;DHT22;1116;51.502;7.414;2023-03-12T08:54:00;5.00;56.80
2543;DHT22;1116;51.502;7.414;2023-03-12T08:56:32;5.20;56.60
2543;DHT22;1116;51.502;7.414;2023-03-12T08:59:03;5.30;56.40
2543;DHT22;1116;51.502;7.414;2023-03-12T09:01:39;5.20;55.70
2543;DHT22;1116;51.502;7.414;2023-03-12T09:04:13;5.40;56.70
2543;DHT22;1116;51.502;7.414;2023-03-12T09:06:53;5.40;54.40
2543;DHT22;1116;51.502;7.414;2023-03-12T09:09:25;5.40;56.20
2543;DHT22;1116;51.502;7.414;2023-03-12T09:11:56;5.50;55.20
2543;DHT22;1116;51.502;7.414;2023-03-12T09:14:27;5.50;54.60
2543;DHT22;1116;51.502;7.414;2023-03-12T09:17:18;5.60;55.00
2543;DHT22;1116;51.502;7.414;2023-03-12T09:19:51;5.70;54.10
2543;DHT22;1116;51.502;7.414;2023-03-12T09:22:22;5.70;55.60
2543;DHT22;1116;51.502;7.414;2023-03-12T09:24:54;6.20;55.80
2543;DHT22;1116;51.502;7.414;2023-03-12T09:27:25;5.90;55.70
2543;DHT22;1116;51.502;7.414;2023-03-12T09:29:58;6.00;55.40
2543;DHT22;1116;51.502;7.414;2023-03-12T09:32:33;5.90;56.50
2543;DHT22;1116;51.502;7.414;2023-03-12T09:35:07;5.90;58.40
2543;DHT22;1116;51.502;7.414;2023-03-12T09:37:47;6.30;59.10
2543;DHT22;1116;51.502;7.414;2023-03-12T09:40:21;6.50;57.90
2543;DHT22;1116;51.502;7.414;2023-03-12T09:42:57;6.10;56.60
2543;DHT22;1116;51.502;7.414;2023-03-12T09:45:32;6.10;56.40
2543;DHT22;1116;51.502;7.414;2023-03-12T09:48:11;6.30;55.60
2543;DHT22;1116;51.502;7.414;2023-03-12T09:50:55;6.10;55.70
2543;DHT22;1116;51.502;7.414;2023-03-12T09:53:33;6.10;56.80
2543;DHT22;1116;51.502;7.414;2023-03-12T09:56:13;6.20;55.90
2543;DHT22;1116;51.502;7.414;2023-03-12T09:58:44;6.20;56.50
2543;DHT22;1116;51.502;7.414;2023-03-12T10:01:31;6.50;56.30
2543;DHT22;1116;51.502;7.414;2023-03-12T10:04:19;6.20;57.70
2543;DHT22;1116;51.502;7.414;2023-03-12T10:07:00;6.10;59.60
2543;DHT22;1116;51.502;7.414;2023-03-12T10:12:40;6.20;63.40
2543;DHT22;1116;51.502;7.414;2023-03-12T10:15:24;6.20;66.50
2543;DHT22;1116;51.502;7.414;2023-03-12T10:18:07;6.20;69.90
2543;DHT22;1116;51.502;7.414;2023-03-12T10:21:09;6.30;77.80
2543;DHT22;1116;51.502;7.414;2023-03-12T10:23:52;6.40;91.40
2543;DHT22;1116;51.502;7.414;2023-03-12T10:26:43;6.40;99.90
2543;DHT22;1116;51.502;7.414;2023-03-12T10:29:57;6.30;99.90
2543;DHT22;1116;51.502;7.414;2023-03-12T10:32:36;6.40;99.90
2543;DHT22;1116;51.502;7.414;2023-03-12T10:35:14;6.50;99.90
2543;DHT22;1116;51.502;7.414;2023-03-12T10:37:51;6.50;99.90
2543;DHT22;1116;51.502;7.414;2023-03-12T10:40:32;6.60;99.90
2543;DHT22;1116;51.502;7.414;2023-03-12T10:43:08;6.80;99.90
2543;DHT22;1116;51.502;7.414;2023-03-12T10:45:42;6.90;99.90
2543;DHT22;1116;51.502;7.414;2023-03-12T10:48:21;6.50;99.90
2543;DHT22;1116;51.502;7.414;2023-03-12T10:51:03;7.00;99.90
2543;DHT22;1116;51.502;7.414;2023-03-12T10:53:38;7.00;99.90
2543;DHT22;1116;51.502;7.414;2023-03-12T10:56:15;7.00;99.90
2543;DHT22;1116;51.502;7.414;2023-03-12T10:58:50;7.10;99.90
2543;DHT22;1116;51.502;7.414;2023-03-12T11:01:27;7.10;99.90
2543;DHT22;1116;51.502;7.414;2023-03-12T11:04:08;7.10;99.90
2543;DHT22;1116;51.502;7.414;2023-03-12T11:07:05;7.20;99.90
2543;DHT22;1116;51.502;7.414;2023-03-12T11:09:37;7.30;99.90
2543;DHT22;1116;51.502;7.414;2023-03-12T11:12:27;7.20;99.90
2543;DHT22;1116;51.502;7.414;2023-03-12T11:14:58;7.30;99.90
2543;DHT22;1116;51.502;7.414;2023-03-12T11:17:29;7.30;99.90
2543;DHT22;1116;51.502;7.414;2023-03-12T11:20:22;7.60;99.90
2543;DHT22;1116;51.502;7.414;2023-03-12T11:22:54;7.30;99.90
2543;DHT22;1116;51.502;7.414;2023-03-12T11:25:27;7.50;99.90
2543;DHT22;1116;51.502;7.414;2023-03-12T11:28:02;7.40;99.90
2543;DHT22;1116;51.502;7.414;2023-03-12T11:30:38;7.50;99.90
2543;DHT22;1116;51.502;7.414;2023-03-12T11:33:10;7.60;99.90
2543;DHT22;1116;51.502;7.414;2023-03-12T11:35:48;7.60;99.90
2543;DHT22;1116;51.502;7.414;2023-03-12T11:38:30;7.60;99.90
2543;DHT22;1116;51.502;7.414;2023-03-12T11:41:15;7.70;99.90
2543;DHT22;1116;51.502;7.414;2023-03-12T11:44:03;7.80;99.90
2543;DHT22;1116;51.502;7.414;2023-03-12T11:46:47;7.80;99.90
2543;DHT22;1116;51.502;7.414;2023-03-12T11:49:30;7.70;99.90
2543;DHT22;1116;51.502;7.414;2023-03-12T11:52:09;7.80;99.90
2543;DHT22;1116;51.502;7.414;2023-03-12T11:58:05;7.90;99.90
2543;DHT22;1116;51.502;7.414;2023-03-12T12:00:49;7.90;99.90
2543;DHT22;1116;51.502;7.414;2023-03-12T12:06:34;8.10;99.90
2543;DHT22;1116;51.502;7.414;2023-03-12T12:09:17;8.10;99.90
2543;DHT22;1116;51.502;7.414;2023-03-12T12:12:05;8.20;99.90
2543;DHT22;1116;51.502;7.414;2023-03-12T12:14:51;8.20;99.90
2543;DHT22;1116;51.502;7.414;2023-03-12T12:17:35;8.30;99.90
2543;DHT22;1116;51.502;7.414;2023-03-12T12:20:19;8.30;99.90
2543;DHT22;1116;51.502;7.414;2023-03-12T12:23:14;8.30;99.90
2543;DHT22;1116;51.502;7.414;2023-03-12T12:26:02;8.40;99.90
2543;DHT22;1116;51.502;7.414;2023-03-12T12:29:04;8.50;99.90
2543;DHT22;1116;51.502;7.414;2023-03-12T12:31:44;8.50;99.90
2543;DHT22;1116;51.502;7.414;2023-03-12T12:34:44;8.60;99.90
2543;DHT22;1116;51.502;7.414;2023-03-12T12:37:30;8.80;99.90
2543;DHT22;1116;51.502;7.414;2023-03-12T12:40:15;8.80;99.90
2543;DHT22;1116;51.502;7.414;2023-03-12T12:42:54;8.90;99.90
2543;DHT22;1116;51.502;7.414;2023-03-12T12:45:28;9.00;99.90
2543;DHT22;1116;51.502;7.414;2023-03-12T12:48:02;9.00;99.90
2543;DHT22;1116;51.502;7.414;2023-03-12T12:50:38;9.00;99.90
2543;DHT22;1116;51.502;7.414;2023-03-12T12:53:17;9.10;99.90
2543;DHT22;1116;51.502;7.414;2023-03-12T12:55:58;9.20;99.90
2543;DHT22;1116;51.502;7.414;2023-03-12T12:58:53;9.30;99.90
2543;DHT22;1116;51.502;7.414;2023-03-12T13:01:34;9.40;99.90
2543;DHT22;1116;51.502;7.414;2023-03-12T13:04:10;9.50;99.90
2543;DHT22;1116;51.502;7.414;2023-03-12T13:07:03;9.40;99.90
2543;DHT22;1116;51.502;7.414;2023-03-12T13:09:57;9.50;99.90
2543;DHT22;1116;51.502;7.414;2023-03-12T13:12:42;9.50;99.90
2543;DHT22;1116;51.502;7.414;2023-03-12T13:15:33;9.50;99.90
2543;DHT22;1116;51.502;7.414;2023-03-12T13:18:23;9.50;99.90
2543;DHT22;1116;51.502;7.414;2023-03-12T13:21:11;9.60;99.90
2543;DHT22;1116;51.502;7.414;2023-03-12T13:23:54;9.70;99.90
2543;DHT22;1116;51.502;7.414;2023-03-12T13:26:44;9.80;99.90
2543;DHT22;1116;51.502;7.414;2023-03-12T13:29:34;9.80;99.90
2543;DHT22;1116;51.502;7.414;2023-03-12T13:32:09;10.00;99.90
2543;DHT22;1116;51.502;7.414;2023-03-12T13:35:06;10.00;99.90
2543;DHT22;1116;51.502;7.414;2023-03-12T13:38:03;10.00;99.90
2543;DHT22;1116;51.502;7.414;2023-03-12T13:40:51;10.10;99.90
2543;DHT22;1116;51.502;7.414;2023-03-12T13:43:48;10.20;99.90
2543;DHT22;1116;51.502;7.414;2023-03-12T13:46:34;10.40;99.90
2543;DHT22;1116;51.502;7.414;2023-03-12T13:49:16;10.40;99.90
2543;DHT22;1116;51.502;7.414;2023-03-12T13:51:59;10.40;99.90
2543;DHT22;1116;51.502;7.414;2023-03-12T13:54:32;10.60;99.90
2543;DHT22;1116;51.502;7.414;2023-03-12T13:57:24;10.60;99.90
2543;DHT22;1116;51.502;7.414;2023-03-12T13:59:56;10.50;99.90
2543;DHT22;1116;51.502;7.414;2023-03-12T14:02:30;10.50;99.90
2543;DHT22;1116;51.502;7.414;2023-03-12T14:05:04;10.60;99.90
2543;DHT22;1116;51.502;7.414;2023-03-12T14:08:12;10.70;99.90
2543;DHT22;1116;51.502;7.414;2023-03-12T14:10:58;10.80;99.90
2543;DHT22;1116;51.502;7.414;2023-03-12T14:13:42;10.80;99.90
2543;DHT22;1116;51.502;7.414;2023-03-12T14:16:23;10.80;99.90
2543;DHT22;1116;51.502;7.414;2023-03-12T14:18:59;10.80;99.90
2543;DHT22;1116;51.502;7.414;2023-03-12T14:21:34;10.80;99.90
2543;DHT22;1116;51.502;7.414;2023-03-12T14:24:22;10.90;99.90
2543;DHT22;1116;51.502;7.414;2023-03-12T14:26:59;11.10;99.90
2543;DHT22;1116;51.502;7.414;2023-03-12T14:29:35;11.10;99.90
2543;DHT22;1116;51.502;7.414;2023-03-12T14:32:13;11.20;99.90
2543;DHT22;1116;51.502;7.414;2023-03-12T14:34:48;11.30;99.90
2543;DHT22;1116;51.502;7.414;2023-03-12T14:37:24;11.50;99.90
2543;DHT22;1116;51.502;7.414;2023-03-12T14:40:02;11.30;99.90
2543;DHT22;1116;51.502;7.414;2023-03-12T14:42:36;11.30;99.90
2543;DHT22;1116;51.502;7.414;2023-03-12T14:45:11;11.20;99.90
2543;DHT22;1116;51.502;7.414;2023-03-12T14:47:44;11.30;99.90
2543;DHT22;1116;51.502;7.414;2023-03-12T14:50:20;11.40;99.90
2543;DHT22;1116;51.502;7.414;2023-03-12T14:52:51;11.50;99.90
2543;DHT22;1116;51.502;7.414;2023-03-12T14:55:25;11.40;99.90
2543;DHT22;1116;51.502;7.414;2023-03-12T14:58:03;11.40;99.90
2543;DHT22;1116;51.502;7.414;2023-03-12T15:00:36;11.30;99.90
2543;DHT22;1116;51.502;7.414;2023-03-12T15:03:12;11.40;99.90
2543;DHT22;1116;51.502;7.414;2023-03-12T15:05:45;11.40;99.90
2543;DHT22;1116;51.502;7.414;2023-03-12T15:08:19;11.40;99.90
2543;DHT22;1116;51.502;7.414;2023-03-12T15:10:54;11.40;99.90
2543;DHT22;1116;51.502;7.414;2023-03-12T15:13:27;11.50;99.90
2543;DHT22;1116;51.502;7.414;2023-03-12T15:15:59;11.40;99.90
2543;DHT22;1116;51.502;7.414;2023-03-12T15:18:31;11.40;99.90
2543;DHT22;1116;51.502;7.414;2023-03-12T15:21:03;11.40;99.90
2543;DHT22;1116;51.502;7.414;2023-03-12T15:23:35;11.40;99.90
2543;DHT22;1116;51.502;7.414;2023-03-12T15:26:14;11.40;99.90
2543;DHT22;1116;51.502;7.414;2023-03-12T15:28:54;11.40;99.90
2543;DHT22;1116;51.502;7.414;2023-03-12T15:31:26;11.40;99.90
2543;DHT22;1116;51.502;7.414;2023-03-12T15:34:01;11.30;99.90
2543;DHT22;1116;51.502;7.414;2023-03-12T15:36:34;11.40;99.90
2543;DHT22;1116;51.502;7.414;2023-03-12T15:39:20;11.50;99.90
2543;DHT22;1116;51.502;7.414;2023-03-12T15:42:00;11.50;99.90
2543;DHT22;1116;51.502;7.414;2023-03-12T15:44:42;11.50;99.90
2543;DHT22;1116;51.502;7.414;2023-03-12T15:47:16;11.60;99.90
2543;DHT22;1116;51.502;7.414;2023-03-12T15:49:49;11.40;99.90
2543;DHT22;1116;51.502;7.414;2023-03-12T15:52:27;11.50;99.90
2543;DHT22;1116;51.502;7.414;2023-03-12T15:55:05;11.50;99.90
2543;DHT22;1116;51.502;7.414;2023-03-12T15:57:47;11.50;99.90
2543;DHT22;1116;51.502;7.414;2023-03-12T16:00:22;11.50;99.90
2543;DHT22;1116;51.502;7.414;2023-03-12T16:02:55;11.50;99.90
2543;DHT22;1116;51.502;7.414;2023-03-12T16:05:29;11.80;99.90
2543;DHT22;1116;51.502;7.414;2023-03-12T16:08:02;11.50;99.90
2543;DHT22;1116;51.502;7.414;2023-03-12T16:10:39;11.40;99.90
2543;DHT22;1116;51.502;7.414;2023-03-12T16:13:14;11.40;99.90
2543;DHT22;1116;51.502;7.414;2023-03-12T16:15:46;11.40;99.90
2543;DHT22;1116;51.502;7.414;2023-03-12T16:18:19;11.40;98.50
2543;DHT22;1116;51.502;7.414;2023-03-12T16:20:52;11.50;96.80
2543;DHT22;1116;51.502;7.414;2023-03-12T16:23:26;11.40;95.10
2543;DHT22;1116;51.502;7.414;2023-03-12T16:25:57;11.40;93.20
2543;DHT22;1116;51.502;7.414;2023-03-12T16:28:33;11.40;91.40
2543;DHT22;1116;51.502;7.414;2023-03-12T16:31:10;11.40;90.20
2543;DHT22;1116;51.502;7.414;2023-03-12T16:33:41;11.40;87.90
2543;DHT22;1116;51.502;7.414;2023-03-12T16:36:16;11.40;84.50
2543;DHT22;1116;51.502;7.414;2023-03-12T16:38:47;11.50;82.70
2543;DHT22;1116;51.502;7.414;2023-03-12T16:41:18;11.40;81.30
2543;DHT22;1116;51.502;7.414;2023-03-12T16:43:52;11.50;78.40
2543;DHT22;1116;51.502;7.414;2023-03-12T16:46:29;11.50;76.00
2543;DHT22;1116;51.502;7.414;2023-03-12T16:49:00;11.50;74.90
2543;DHT22;1116;51.502;7.414;2023-03-12T16:51:31;11.50;72.80
2543;DHT22;1116;51.502;7.414;2023-03-12T16:54:02;11.40;68.70
2543;DHT22;1116;51.502;7.414;2023-03-12T16:56:42;11.40;66.60
2543;DHT22;1116;51.502;7.414;2023-03-12T16:59:22;11.40;64.70
2543;DHT22;1116;51.502;7.414;2023-03-12T17:01:58;11.40;61.90
2543;DHT22;1116;51.502;7.414;2023-03-12T17:04:28;11.40;58.40
2543;DHT22;1116;51.502;7.414;2023-03-12T17:06:59;11.40;56.10
2543;DHT22;1116;51.502;7.414;2023-03-12T17:09:30;11.40;53.00
2543;DHT22;1116;51.502;7.414;2023-03-12T17:12:01;11.30;51.00
2543;DHT22;1116;51.502;7.414;2023-03-12T17:14:35;11.40;51.70
2543;DHT22;1116;51.502;7.414;2023-03-12T17:17:06;11.40;50.40
2543;DHT22;1116;51.502;7.414;2023-03-12T17:19:38;11.30;49.80
2543;DHT22;1116;51.502;7.414;2023-03-12T17:22:08;11.20;48.50
2543;DHT22;1116;51.502;7.414;2023-03-12T17:24:41;11.20;49.00
2543;DHT22;1116;51.502;7.414;2023-03-12T17:27:13;11.20;49.60
2543;DHT22;1116;51.502;7.414;2023-03-12T17:29:47;11.20;48.40
2543;DHT22;1116;51.502;7.414;2023-03-12T17:32:18;11.20;47.60